Happy Valentine's Day! 

Flight Track Log - Related Links

Times and Time Zones

All times are in EDT time to prevent confusion due to time zone crossing. See the FLG4262 flight status page for this flight to view local times or setup timezone preferences in your user account.


Time Position Orientation Groundspeed Altitude Reporting Facility
EDT Latitude Longitude Course Direction KTS MPH feet Rate Location/Type
Thu 04:01:18 PM 42.2097 -83.3478 166° South 134 154 1,500  Level Cleveland Center
Thu 04:03:05 PM 42.1206 -83.3181 79° East 212 244 6,600 2,955 Climbing Cleveland Center
Thu 04:03:32 PM 42.0847 -83.2853 146° Southeast 305 351 8,100 2,806 Climbing Cleveland Center
Thu 04:04:07 PM 42.0561 -83.2403 131° Southeast 306 352 9,500 1,869 Climbing Cleveland Center
Thu 04:04:33 PM 42.0519 -83.1656 94° East 397 457 10,000 581 Climbing Cleveland Center
Thu 04:05:09 PM 42.0772 -83.1014 62° Northeast 395 455 10,100 1,636 Climbing Cleveland Center
Thu 04:06:12 PM 42.1375 -82.9719 58° Northeast 407 468 12,700 1,584 Climbing Cleveland Center
Thu 04:07:14 PM 42.2119 -82.8086 58° Northeast 426 490 13,400 1,597 Climbing Cleveland Center
Thu 04:08:16 PM 42.2742 -82.6703 59° Northeast 433 498 16,000 1,968 Climbing Cleveland Center
Thu 04:10:20 PM 42.3658 -82.3817 67° East 436 502 19,500 1,516 Climbing Cleveland Center
Thu 04:11:22 PM 42.3594 -82.2122 93° East 448 516 20,700 1,194 Climbing Cleveland Center
Thu 04:13:26 PM 42.3439 -81.8478 95° East 461 531 23,200 1,097 Climbing Cleveland Center
Thu 04:14:28 PM 42.3356 -81.6669 94° East 470 541 24,100 919 Climbing Cleveland Center
Thu 04:15:30 PM 42.3256 -81.4531 94° East 482 555 25,100 864 Climbing Cleveland Center
Thu 04:16:33 PM 42.3164 -81.2675 94° East 485 558 25,900 768 Climbing Cleveland Center
Thu 04:17:35 PM 42.3075 -81.0800 94° East 489 563 26,700 677 Climbing Cleveland Center
Thu 04:18:37 PM 42.2967 -80.8889 94° East 499 574 27,300 726 Climbing Cleveland Center
Thu 04:19:39 PM 42.2869 -80.6972 94° East 503 579 28,200 968 Climbing Cleveland Center
Thu 04:20:41 PM 42.2767 -80.5081 94° East 503 579 29,300 677 Climbing Cleveland Center
Thu 04:23:47 PM 42.2425 -79.9367 95° East 497 572 31,000 411 Climbing Cleveland Center
Thu 04:24:49 PM 42.2303 -79.7497 95° East 505 581 31,000  Level Cleveland Center
Thu 04:26:54 PM 42.2033 -79.3389 94° East 503 579 31,000  Level Cleveland Center
Thu 04:27:56 PM 42.1911 -79.1550 95° East 498 573 31,000 -484 Level Cleveland Center
Thu 04:28:58 PM 42.1917 -78.9692 90° East 498 573 30,000 -1,104 Descending Cleveland Center
Thu 04:29:00 PM 42.1950 -79.2779 95° East  Level FlightAware Approximate
Thu 04:30:01 PM 42.1950 -78.7594 89° East 498 573 28,700  Level Cleveland Center
Thu 04:31:02 PM 42.1992 -78.5717 88° East 499 574 27,300 -871 Descending Cleveland Center
Thu 04:33:07 PM 42.2039 -78.2017 89° East 499 574 26,000 -417 Descending Cleveland Center
Thu 04:34:09 PM 42.2075 -77.9836 89° East 494 568 26,000 -968 Level Cleveland Center
Thu 04:35:11 PM 42.2078 -77.7967 90° East 498 573 24,000 -1,935 Descending Cleveland Center
Thu 04:36:13 PM 42.2097 -77.6111 89° East 502 578 22,000 -1,935 Descending Cleveland Center
Thu 04:37:15 PM 42.2103 -77.4372 90° East 480 552 20,000 -1,984 Descending Cleveland Center
Thu 04:38:17 PM 42.2108 -77.2708 90° East 458 527 17,900 -2,097 Descending Cleveland Center
Thu 04:40:21 PM 42.2117 -76.9172 90° East 428 493 13,500 -1,860 Descending Cleveland Center
Thu 04:42:06 PM 42.2150 -76.6506 89° East 403 464 10,800 -1,345 Descending New York Center
Thu 04:43:06 PM 42.2275 -76.5228 82° East 369 425 9,800 -1,300 Descending New York Center
Thu 04:44:06 PM 42.2417 -76.4036 81° East 340 391 8,200 -1,550 Descending New York Center
Thu 04:45:06 PM 42.2511 -76.2897 84° East 318 366 6,700 -1,500 Descending New York Center
Thu 04:46:06 PM 42.2622 -76.1842 82° East 296 341 5,200 -1,550 Descending New York Center
Thu 04:47:06 PM 42.2728 -76.0897 81° East 273 314 3,600 -1,000 Descending New York Center
Thu 04:47:36 PM 42.2772 -76.0506 81° East 276 318 3,700 200 Climbing Cleveland Center

Login

Don't have an account? Register now (free) for customized features, flight alerts, and more!